GMTT

Ibn Batouta Airport

Tangier, Morocco
METAR GMTT 180230Z 08009KT 8000 SCT016 12/06 Q1028 NOSIG
Observed Flight Rules
Dec-18 @ 02:30 UTC (48 minutes ago) Marginal Visual Flight Rules
Wind Visibility Clouds
80° at 9 knots 7,998 meters
  • Scattered at 1,600' AGL
Temperatures Readings
Current 12°C / 54°F
Dewpoint 6°C / 43°F
Humidity 67%
Altimeter 30.35" Hg
Pressure 1028 hPa
Elevation 21
METAR GMTT 180230Z 08009KT 8000 SCT016 12/06 Q1028 NOSIG
Observed Flight Rules
Dec-18 @ 02:30 UTC
(48 minutes ago)
MVFR
Wind Visibility
80° at 9 knots 7,998 meters
Clouds
  • Scattered at 1,600' AGL
Temperature Dewpoint
12°C / 54°F 6°C / 43°F
Humidity Altimeter Pressure
67% 30.35" Hg 1028 hPa